createdAt,value
2023-05-25T00:01:49.564Z,13.24
2023-05-25T00:04:19.589Z,13.21
2023-05-25T00:06:48.020Z,13.16
2023-05-25T00:09:16.554Z,13.10
2023-05-25T00:11:44.857Z,13.10
2023-05-25T00:14:14.689Z,13.14
2023-05-25T00:16:43.251Z,13.22
2023-05-25T00:19:11.705Z,13.31
2023-05-25T00:21:40.050Z,13.28
2023-05-25T00:24:09.290Z,13.27
2023-05-25T00:26:37.607Z,13.32
2023-05-25T00:29:07.240Z,13.29
2023-05-25T00:31:37.139Z,13.27
2023-05-25T00:34:05.451Z,13.25
2023-05-25T00:36:33.753Z,13.30
2023-05-25T00:39:02.199Z,13.30
2023-05-25T00:41:32.260Z,13.28
2023-05-25T00:44:00.594Z,13.29
2023-05-25T00:46:29.692Z,13.27
2023-05-25T00:48:59.563Z,13.26
2023-05-25T00:51:28.477Z,13.30
2023-05-25T00:53:56.878Z,13.36
2023-05-25T00:56:29.140Z,13.41
2023-05-25T00:59:01.993Z,13.34
2023-05-25T01:01:33.634Z,13.26
2023-05-25T01:04:07.573Z,13.30
2023-05-25T01:06:39.765Z,13.30
2023-05-25T01:09:12.741Z,13.35
2023-05-25T01:11:44.320Z,13.30
2023-05-25T01:14:12.977Z,13.29
2023-05-25T01:16:42.938Z,13.28
2023-05-25T01:19:12.820Z,13.24
2023-05-25T01:21:48.198Z,13.27
2023-05-25T01:24:22.476Z,13.22
2023-05-25T01:26:57.279Z,13.18
2023-05-25T01:29:27.627Z,13.17
2023-05-25T01:31:59.525Z,13.23
2023-05-25T01:34:29.121Z,13.26
2023-05-25T01:36:58.947Z,13.22
2023-05-25T01:39:27.273Z,13.19
2023-05-25T01:41:55.600Z,13.12
2023-05-25T01:44:24.661Z,12.97
2023-05-25T01:47:00.182Z,12.83
2023-05-25T01:49:31.667Z,12.86
2023-05-25T01:52:09.377Z,12.89
2023-05-25T01:54:39.760Z,12.90
2023-05-25T01:57:12.709Z,12.93
2023-05-25T01:59:44.872Z,12.96
2023-05-25T02:02:15.356Z,13.00
2023-05-25T02:04:44.232Z,13.09
2023-05-25T02:07:13.901Z,13.11
2023-05-25T02:09:42.247Z,13.14
2023-05-25T02:12:11.092Z,13.15
2023-05-25T02:14:39.378Z,13.21
2023-05-25T02:17:07.653Z,13.22
2023-05-25T02:19:37.785Z,13.21
2023-05-25T02:22:06.511Z,13.24
2023-05-25T02:24:38.183Z,13.20
2023-05-25T02:27:07.305Z,13.21
2023-05-25T02:29:35.726Z,13.16
2023-05-25T02:32:04.129Z,12.81
2023-05-25T02:34:32.512Z,12.75
2023-05-25T02:37:01.778Z,12.74
2023-05-25T02:39:30.398Z,12.72
2023-05-25T02:42:00.071Z,12.81
2023-05-25T02:44:28.384Z,12.79
2023-05-25T02:46:56.890Z,12.76
2023-05-25T02:49:25.188Z,12.81
2023-05-25T02:51:53.530Z,12.98
2023-05-25T02:54:22.005Z,12.96
2023-05-25T02:56:50.336Z,12.93
2023-05-25T02:59:20.089Z,13.02
2023-05-25T03:01:48.554Z,13.04
2023-05-25T03:04:18.212Z,13.17
2023-05-25T03:06:46.500Z,13.33
2023-05-25T03:09:15.013Z,13.51
2023-05-25T03:11:43.346Z,13.56
2023-05-25T03:14:13.349Z,13.78
2023-05-25T03:16:43.141Z,14.03
2023-05-25T03:19:11.961Z,14.13
2023-05-25T03:21:40.200Z,13.98
2023-05-25T03:24:08.858Z,14.06
2023-05-25T03:26:37.366Z,14.14
2023-05-25T03:29:07.205Z,14.31
2023-05-25T03:31:36.113Z,14.45
2023-05-25T03:34:07.023Z,14.55
2023-05-25T03:36:35.324Z,14.59
2023-05-25T03:39:03.593Z,15.28
2023-05-25T03:41:31.899Z,16.01
2023-05-25T03:44:00.304Z,16.04
2023-05-25T03:46:28.720Z,16.50
2023-05-25T03:48:56.973Z,16.44
2023-05-25T03:51:28.078Z,16.46
2023-05-25T03:53:56.542Z,16.65
2023-05-25T03:56:24.981Z,16.82
2023-05-25T03:58:53.392Z,16.81
2023-05-25T04:01:22.041Z,16.84
2023-05-25T04:03:50.578Z,16.90
2023-05-25T04:06:19.430Z,16.83
2023-05-25T04:08:49.734Z,17.91
2023-05-25T04:11:18.021Z,19.59
2023-05-25T04:13:46.402Z,21.59
2023-05-25T04:16:14.829Z,23.56
2023-05-25T04:18:43.355Z,23.78
2023-05-25T04:21:11.613Z,24.87
2023-05-25T04:23:40.025Z,25.53
2023-05-25T04:26:10.479Z,25.36
2023-05-25T04:28:40.829Z,26.92
2023-05-25T04:31:09.637Z,27.45
2023-05-25T04:33:38.962Z,26.82
2023-05-25T04:36:08.927Z,27.47
2023-05-25T04:38:37.504Z,27.72
2023-05-25T04:41:06.662Z,27.17
2023-05-25T04:43:37.234Z,27.35
2023-05-25T04:46:08.172Z,26.09
2023-05-25T04:48:39.171Z,24.13
2023-05-25T04:51:07.759Z,23.91
2023-05-25T04:53:36.655Z,23.06
2023-05-25T04:56:05.408Z,22.21
2023-05-25T04:58:34.242Z,21.61
2023-05-25T05:01:04.090Z,21.14
2023-05-25T05:03:32.606Z,20.47
2023-05-25T05:06:00.906Z,20.86
2023-05-25T05:08:29.351Z,20.52
2023-05-25T05:10:57.668Z,20.07
2023-05-25T05:13:26.143Z,20.32
2023-05-25T05:15:55.322Z,20.50
2023-05-25T05:18:24.992Z,21.23
2023-05-25T05:20:53.278Z,22.45
2023-05-25T05:23:21.790Z,23.76
2023-05-25T05:25:50.054Z,26.43
2023-05-25T05:28:18.476Z,27.68
2023-05-25T05:30:47.632Z,27.93
2023-05-25T05:33:16.196Z,29.65
2023-05-25T05:35:46.307Z,28.44
2023-05-25T05:38:14.695Z,29.46
2023-05-25T05:40:43.228Z,31.13
2023-05-25T05:43:12.636Z,31.48
2023-05-25T05:45:41.012Z,30.33
2023-05-25T05:48:10.900Z,30.13
2023-05-25T05:50:41.831Z,30.13
2023-05-25T05:53:12.784Z,30.13
2023-05-25T05:55:41.245Z,28.99
2023-05-25T05:58:09.673Z,29.51
2023-05-25T06:00:38.030Z,30.38
2023-05-25T06:03:06.422Z,28.46
2023-05-25T06:05:34.785Z,27.20
2023-05-25T06:08:05.681Z,27.97
2023-05-25T06:10:35.677Z,30.51
2023-05-25T06:13:04.011Z,30.15
2023-05-25T06:15:32.686Z,27.76
2023-05-25T06:18:01.145Z,27.24
2023-05-25T06:20:29.700Z,26.24
2023-05-25T06:22:58.078Z,28.83
2023-05-25T06:25:26.391Z,30.33
2023-05-25T06:27:56.107Z,30.85
2023-05-25T06:30:24.722Z,30.58
2023-05-25T06:32:53.013Z,30.31
2023-05-25T06:35:21.315Z,29.25
2023-05-25T06:37:50.254Z,28.37
2023-05-25T06:40:18.968Z,28.57
2023-05-25T06:42:47.232Z,28.51
2023-05-25T06:45:17.394Z,26.48
2023-05-25T06:47:45.727Z,26.69
2023-05-25T06:50:14.242Z,27.14
2023-05-25T06:52:43.084Z,27.44
2023-05-25T06:55:12.146Z,25.95
2023-05-25T10:26:14.693Z,23.49
2023-05-25T10:28:45.787Z,24.04
2023-05-25T10:31:14.845Z,24.40
2023-05-25T10:33:47.515Z,23.73
2023-05-25T10:36:19.759Z,24.14
2023-05-25T10:38:48.828Z,24.37
2023-05-25T10:41:20.903Z,24.10
2023-05-25T10:43:49.639Z,23.31
2023-05-25T10:46:19.364Z,23.85
2023-05-25T10:48:49.529Z,24.00
2023-05-25T10:51:20.851Z,24.01
2023-05-25T10:54:00.862Z,24.38
2023-05-25T10:56:30.582Z,24.55
2023-05-25T10:58:59.229Z,24.46
2023-05-25T11:01:28.143Z,24.37
2023-05-25T11:03:58.190Z,24.60
2023-05-25T11:07:14.460Z,24.74
2023-05-25T11:09:47.279Z,24.16
2023-05-25T11:12:23.664Z,24.30
2023-05-25T11:15:13.012Z,24.77
2023-05-25T11:18:02.985Z,24.96
2023-05-25T11:20:32.094Z,25.05
2023-05-25T11:23:00.546Z,24.54
2023-05-25T11:25:40.608Z,24.34
2023-05-25T11:28:12.682Z,24.73
2023-05-25T11:30:43.416Z,23.97
2023-05-25T11:33:11.890Z,24.34
2023-05-25T11:35:40.259Z,24.02
2023-05-25T11:38:09.572Z,24.26
2023-05-25T11:40:47.407Z,24.35
2023-05-25T11:43:18.324Z,24.12
2023-05-25T11:45:48.646Z,24.46
2023-05-25T11:48:17.391Z,24.52
2023-05-25T11:50:46.118Z,24.48
2023-05-25T11:53:15.113Z,24.35
2023-05-25T11:55:55.578Z,23.97
2023-05-25T11:58:36.522Z,24.14
2023-05-25T12:01:19.394Z,24.10
2023-05-25T12:03:48.189Z,24.01
2023-05-25T12:06:26.986Z,23.91
2023-05-25T12:08:55.713Z,23.84
2023-05-25T12:11:35.713Z,23.71
2023-05-25T12:14:08.163Z,23.42
2023-05-25T12:16:39.090Z,23.11
2023-05-25T12:19:08.375Z,22.99
2023-05-25T12:21:39.114Z,23.03
2023-05-25T12:24:08.354Z,22.77
2023-05-25T12:26:37.218Z,22.73
2023-05-25T12:29:08.400Z,22.73
2023-05-25T12:31:38.948Z,21.93
2023-05-25T12:34:09.646Z,21.88
2023-05-25T12:36:40.032Z,21.90
2023-05-25T12:39:09.581Z,21.74
2023-05-25T12:41:50.303Z,21.88
2023-05-25T12:44:26.545Z,21.97
2023-05-25T12:46:56.433Z,21.24
2023-05-25T12:49:26.546Z,21.51
2023-05-25T12:51:54.972Z,21.37
2023-05-25T12:54:44.176Z,21.08
2023-05-25T12:57:17.323Z,21.34
2023-05-25T12:59:48.355Z,20.98
2023-05-25T13:02:16.794Z,20.88
2023-05-25T13:04:45.135Z,20.87
2023-05-25T13:07:13.492Z,21.01
2023-05-25T13:09:42.719Z,21.20
2023-05-25T13:12:11.367Z,21.38
2023-05-25T13:14:39.690Z,21.66
2023-05-25T13:17:09.440Z,21.73
2023-05-25T13:19:37.788Z,21.79
2023-05-25T13:22:06.878Z,21.70
2023-05-25T13:24:35.314Z,21.65
2023-05-25T13:27:03.617Z,21.52
2023-05-25T13:29:32.012Z,21.33
2023-05-25T13:32:00.428Z,21.35
2023-05-25T13:34:30.458Z,21.42
2023-05-25T13:36:59.044Z,21.55
2023-05-25T13:39:27.350Z,21.61
2023-05-25T13:41:55.639Z,21.70
2023-05-25T13:44:24.016Z,21.69
2023-05-25T13:46:52.362Z,21.57
2023-05-25T13:49:20.792Z,21.49
2023-05-25T13:51:50.588Z,21.69
2023-05-25T13:54:18.881Z,21.70
2023-05-25T13:56:47.266Z,21.72
2023-05-25T13:59:15.708Z,21.87
2023-05-25T14:01:44.061Z,21.91
2023-05-25T14:04:15.005Z,21.99
2023-05-25T14:06:43.338Z,21.99
2023-05-25T14:09:13.634Z,22.20
2023-05-25T14:11:42.073Z,22.35
2023-05-25T14:14:23.134Z,22.25
2023-05-25T14:16:55.585Z,22.11
2023-05-25T14:19:24.069Z,22.16
2023-05-25T14:22:11.106Z,22.04
2023-05-25T14:24:41.393Z,22.07
2023-05-25T14:27:09.878Z,22.06
2023-05-25T14:29:38.279Z,21.64
2023-05-25T14:32:06.843Z,21.58
2023-05-25T14:34:35.151Z,21.82
2023-05-25T14:37:03.446Z,22.03
2023-05-25T14:39:31.817Z,22.10
2023-05-25T14:42:02.590Z,22.17
2023-05-25T14:44:30.962Z,22.17
2023-05-25T14:46:59.393Z,21.91
2023-05-25T14:49:27.896Z,21.65
2023-05-25T14:51:56.203Z,21.59
2023-05-25T14:54:24.505Z,21.54
2023-05-25T14:56:52.957Z,21.64
2023-05-25T14:59:27.329Z,21.41
2023-05-25T15:01:55.749Z,21.27
2023-05-25T15:04:26.524Z,21.28
2023-05-25T15:06:54.920Z,21.24
2023-05-25T15:09:23.331Z,21.21
2023-05-25T15:11:51.756Z,21.02
2023-05-25T15:14:20.107Z,20.91
2023-05-25T15:16:49.835Z,20.83
2023-05-25T15:19:18.215Z,20.81
2023-05-25T15:21:46.612Z,20.74
2023-05-25T15:24:16.839Z,20.60
2023-05-25T15:26:45.273Z,20.55
2023-05-25T15:29:13.519Z,20.61
2023-05-25T15:31:41.862Z,20.48
2023-05-25T15:34:12.095Z,20.50
2023-05-25T15:36:40.375Z,20.34
2023-05-25T15:39:12.860Z,20.34
2023-05-25T15:41:41.140Z,20.31
2023-05-25T15:44:12.689Z,20.36
2023-05-25T15:46:41.593Z,20.39
2023-05-25T15:49:12.132Z,20.41
2023-05-25T15:51:42.006Z,20.48
2023-05-25T15:54:13.497Z,20.45
2023-05-25T15:56:42.810Z,20.49
2023-05-25T15:59:12.592Z,20.47
2023-05-25T16:01:41.255Z,20.47
2023-05-25T16:04:09.703Z,20.44
2023-05-25T16:06:39.479Z,20.49
2023-05-25T16:09:07.798Z,20.53
2023-05-25T16:11:36.062Z,20.49
2023-05-25T16:14:04.306Z,20.50
2023-05-25T16:16:32.863Z,20.46
2023-05-25T16:19:01.375Z,20.45
2023-05-25T16:21:29.750Z,20.49
2023-05-25T16:23:59.569Z,20.50
2023-05-25T16:26:27.812Z,20.45
2023-05-25T16:28:56.317Z,20.52
2023-05-25T16:31:24.678Z,20.42
2023-05-25T16:33:52.964Z,20.28
2023-05-25T16:36:21.242Z,20.30
2023-05-25T16:38:49.497Z,20.24
2023-05-25T16:41:19.154Z,20.15
2023-05-25T16:43:47.539Z,20.10
2023-05-25T16:46:16.086Z,20.05
2023-05-25T16:48:44.417Z,19.99
2023-05-25T16:51:15.348Z,19.99
2023-05-25T16:53:44.049Z,19.87
2023-05-25T16:56:12.321Z,19.79
2023-05-25T16:58:42.157Z,19.72
2023-05-25T17:01:11.544Z,19.68
2023-05-25T17:03:40.172Z,19.62
2023-05-25T17:06:09.414Z,19.54
2023-05-25T17:08:37.687Z,19.45
2023-05-25T17:11:06.085Z,19.43
2023-05-25T17:13:34.462Z,19.30
2023-05-25T17:16:04.198Z,19.29
2023-05-25T17:18:32.536Z,19.36
2023-05-25T17:21:01.946Z,19.30
2023-05-25T17:23:30.227Z,19.24
2023-05-25T17:25:58.620Z,19.04
2023-05-25T17:28:28.912Z,18.98
2023-05-25T17:30:58.986Z,18.94
2023-05-25T17:33:28.747Z,18.82
2023-05-25T17:35:57.072Z,18.81
2023-05-25T17:38:26.139Z,18.73
2023-05-25T17:40:54.433Z,18.75
2023-05-25T17:43:22.796Z,18.73
2023-05-25T17:45:51.167Z,18.74
2023-05-25T17:48:19.495Z,18.68
2023-05-25T17:50:49.166Z,18.57
2023-05-25T17:53:17.448Z,18.42
2023-05-25T17:55:46.150Z,18.35
2023-05-25T17:58:14.675Z,18.28
2023-05-25T18:00:42.950Z,18.29
2023-05-25T18:03:11.506Z,18.20
2023-05-25T18:05:39.904Z,18.13
2023-05-25T18:08:09.658Z,18.12
2023-05-25T18:10:37.957Z,18.12
2023-05-25T18:13:06.261Z,18.12
2023-05-25T18:15:34.752Z,18.14
2023-05-25T18:18:03.874Z,18.22
2023-05-25T18:20:32.337Z,18.24
2023-05-25T18:23:00.697Z,18.24
2023-05-25T18:25:30.505Z,18.29
2023-05-25T18:27:58.961Z,18.21
2023-05-25T18:30:27.424Z,18.13
2023-05-25T18:33:53.483Z,18.05
2023-05-25T18:36:21.915Z,17.95
2023-05-25T18:38:50.324Z,17.92
2023-05-25T18:41:21.406Z,17.87
2023-05-25T18:43:50.220Z,17.86
2023-05-25T18:46:18.758Z,17.85
2023-05-25T18:48:48.277Z,17.96
2023-05-25T18:51:17.401Z,17.94
2023-05-25T18:53:46.071Z,18.16
2023-05-25T18:56:14.405Z,18.14
2023-05-25T18:58:44.342Z,18.15
2023-05-25T19:01:12.811Z,18.05
2023-05-25T19:03:41.388Z,18.01
2023-05-25T19:06:10.049Z,17.99
2023-05-25T19:08:38.411Z,18.06
2023-05-25T19:11:06.837Z,18.03
2023-05-25T19:13:35.254Z,18.05
2023-05-25T19:16:13.096Z,18.03
2023-05-25T19:18:41.469Z,18.09
2023-05-25T19:21:10.511Z,18.11
2023-05-25T19:23:38.872Z,18.17
2023-05-25T19:26:07.220Z,18.12
2023-05-25T19:28:35.557Z,18.15
2023-05-25T19:31:05.954Z,18.14
2023-05-25T19:33:34.334Z,18.06
2023-05-25T19:36:02.678Z,17.95
2023-05-25T19:38:40.234Z,18.04
2023-05-25T19:41:09.888Z,18.00
2023-05-25T19:43:39.803Z,18.06
2023-05-25T19:46:10.144Z,18.16
2023-05-25T19:48:40.151Z,18.12
2023-05-25T19:51:08.620Z,18.16
2023-05-25T19:53:36.968Z,18.17
2023-05-25T19:56:06.674Z,18.14
2023-05-25T19:58:35.402Z,18.19
2023-05-25T20:01:03.906Z,18.08
2023-05-25T20:03:34.059Z,18.10
2023-05-25T20:06:02.685Z,18.15
2023-05-25T20:08:31.114Z,18.18
2023-05-25T20:10:59.522Z,18.27
2023-05-25T20:13:27.841Z,18.22
2023-05-25T20:15:56.266Z,18.17
2023-05-25T20:18:25.142Z,18.02
2023-05-25T20:20:54.866Z,18.02
2023-05-25T20:23:23.142Z,18.05
2023-05-25T20:25:51.451Z,18.01
2023-05-25T20:28:19.997Z,17.89
2023-05-25T20:30:48.521Z,17.89
2023-05-25T20:33:17.162Z,17.88
2023-05-25T20:35:45.762Z,17.78
2023-05-25T20:38:15.694Z,17.86
2023-05-25T20:40:44.128Z,17.77
2023-05-25T20:43:12.393Z,17.69
2023-05-25T20:45:41.451Z,17.64
2023-05-25T20:48:12.250Z,17.49
2023-05-25T20:50:40.687Z,17.51
2023-05-25T20:53:22.963Z,17.63
2023-05-25T20:55:51.392Z,17.66
2023-05-25T20:58:19.794Z,17.64
2023-05-25T21:00:49.893Z,17.62
2023-05-25T21:03:18.431Z,17.60
2023-05-25T21:05:47.037Z,17.69
2023-05-25T21:08:17.123Z,17.65
2023-05-25T21:10:45.562Z,17.67
2023-05-25T21:13:14.463Z,17.66
2023-05-25T21:15:42.904Z,17.63
2023-05-25T21:18:12.998Z,17.74
2023-05-25T21:20:41.696Z,17.75
2023-05-25T21:23:10.082Z,17.75
2023-05-25T21:25:39.906Z,17.71
2023-05-25T21:28:09.317Z,17.75
2023-05-25T21:30:37.783Z,17.68
2023-05-25T21:33:06.277Z,17.76
2023-05-25T21:35:34.899Z,17.74
2023-05-25T21:38:03.670Z,17.64
2023-05-25T21:40:32.074Z,17.60
2023-05-25T21:43:01.954Z,17.58
2023-05-25T21:45:30.213Z,17.49
2023-05-25T21:47:58.862Z,17.54
2023-05-25T21:50:27.326Z,17.52
2023-05-25T21:52:55.925Z,17.51
2023-05-25T21:55:24.576Z,17.53
2023-05-25T21:57:52.984Z,17.50
2023-05-25T22:00:23.627Z,17.47
2023-05-25T22:02:52.134Z,17.50
2023-05-25T22:05:20.696Z,17.53
2023-05-25T22:07:48.990Z,17.45
2023-05-25T22:10:17.531Z,17.45
2023-05-25T22:12:45.900Z,17.39
2023-05-25T22:15:14.520Z,17.36
2023-05-25T22:17:44.340Z,17.37
2023-05-25T22:20:13.618Z,17.39
2023-05-25T22:22:42.485Z,17.35
2023-05-25T22:25:11.292Z,17.27
2023-05-25T22:27:39.928Z,17.28
2023-05-25T22:30:09.455Z,17.28
2023-05-25T22:32:37.863Z,17.20
2023-05-25T22:35:09.059Z,17.23
2023-05-25T22:37:37.434Z,17.23
2023-05-25T22:40:07.007Z,17.20
2023-05-25T22:42:35.460Z,17.15
2023-05-25T22:45:03.872Z,17.12
2023-05-25T22:47:32.176Z,17.06
2023-05-25T22:50:00.536Z,17.12
2023-05-25T22:52:30.327Z,17.11
2023-05-25T22:54:59.061Z,17.08
2023-05-25T22:57:27.397Z,17.11
2023-05-25T22:59:56.517Z,17.05
2023-05-25T23:02:24.960Z,17.06
2023-05-25T23:04:54.251Z,17.05
2023-05-25T23:07:23.165Z,17.03
2023-05-25T23:09:53.147Z,16.99
2023-05-25T23:12:21.786Z,16.87
2023-05-25T23:14:52.073Z,16.86
2023-05-25T23:17:20.404Z,16.85
2023-05-25T23:19:50.222Z,16.87
2023-05-25T23:22:18.694Z,16.90
2023-05-25T23:24:49.141Z,16.96
2023-05-25T23:27:19.049Z,16.92
2023-05-25T23:29:47.361Z,16.90
2023-05-25T23:32:15.836Z,16.93
2023-05-25T23:34:44.226Z,16.86
2023-05-25T23:37:12.656Z,16.83
2023-05-25T23:39:41.049Z,16.80
2023-05-25T23:42:10.269Z,16.79
2023-05-25T23:44:40.101Z,16.85
2023-05-25T23:47:08.745Z,16.78
2023-05-25T23:49:37.096Z,16.77
2023-05-25T23:52:07.326Z,16.70
2023-05-25T23:54:36.268Z,16.75
2023-05-25T23:57:04.919Z,16.71
2023-05-25T23:59:33.316Z,16.68
